Time;durP1;ratioP1;P1;durP2;ratioP2;P2;SDS_P1;SDS_P2;PMS_P1;PMS_P2;Temp;Humidity;BMP_temperature;BMP_pressure;BME280_temperature;BME280_humidity;BME280_pressure;Samples;Min_cycle;Max_cycle;Signal;HPM_P1;HPM_P2
2023/08/18 00:01:41;;;;;;;5.18;3.05;;;16.40;99.90;;;;;;5055462;28;20044;-67
2023/08/18 00:04:07;;;;;;;6.18;3.08;;;16.40;99.90;;;;;;5078090;28;20036;-67
2023/08/18 00:06:33;;;;;;;5.35;3.20;;;16.40;99.90;;;;;;5056609;28;20077;-67
2023/08/18 00:08:59;;;;;;;5.95;3.28;;;16.40;99.90;;;;;;5073618;28;20047;-67
2023/08/18 00:11:24;;;;;;;5.13;2.83;;;16.30;99.90;;;;;;5072763;28;20075;-67
2023/08/18 00:13:50;;;;;;;6.80;3.72;;;16.30;99.90;;;;;;5073599;28;20040;-67
2023/08/18 00:16:16;;;;;;;6.60;3.20;;;16.30;99.90;;;;;;5073492;28;20153;-67
2023/08/18 00:18:41;;;;;;;8.00;3.67;;;16.30;99.90;;;;;;5072723;28;20044;-67
2023/08/18 00:21:07;;;;;;;6.97;4.13;;;16.30;99.90;;;;;;5091858;28;20032;-66
2023/08/18 00:23:33;;;;;;;5.93;3.10;;;16.30;99.90;;;;;;5077255;28;20390;-66
2023/08/18 00:25:59;;;;;;;6.28;3.30;;;16.30;99.90;;;;;;5076519;28;20423;-66
2023/08/18 00:28:24;;;;;;;5.50;3.28;;;16.30;99.90;;;;;;5095358;28;20111;-66
2023/08/18 00:30:50;;;;;;;10.15;3.42;;;16.30;99.90;;;;;;5095354;28;20040;-66
2023/08/18 00:33:16;;;;;;;5.50;2.83;;;16.30;99.90;;;;;;5094337;28;20071;-66
2023/08/18 00:35:41;;;;;;;6.10;3.15;;;16.30;99.90;;;;;;5060179;28;20040;-66
2023/08/18 00:38:07;;;;;;;4.28;2.47;;;16.30;99.90;;;;;;5076143;28;20075;-66
2023/08/18 00:40:33;;;;;;;7.10;2.85;;;16.20;99.90;;;;;;5076661;28;20553;-66
2023/08/18 00:42:58;;;;;;;5.57;3.05;;;16.30;99.90;;;;;;5077128;28;20508;-66
2023/08/18 00:45:25;;;;;;;5.43;2.88;;;16.30;99.90;;;;;;5076151;28;20038;-66
2023/08/18 00:47:51;;;;;;;5.82;3.10;;;16.30;99.90;;;;;;5076793;28;20476;-67
2023/08/18 00:50:18;;;;;;;6.57;2.95;;;16.20;99.90;;;;;;5076450;28;20059;-66
2023/08/18 00:52:44;;;;;;;5.97;2.63;;;16.20;99.90;;;;;;5075788;28;20047;-67
2023/08/18 00:55:11;;;;;;;7.38;2.95;;;16.20;99.90;;;;;;5094632;28;20072;-66
2023/08/18 00:57:38;;;;;;;8.07;3.05;;;16.20;99.90;;;;;;5076957;28;20509;-66
2023/08/18 01:00:04;;;;;;;4.97;2.72;;;16.10;99.90;;;;;;5094061;28;20075;-66
2023/08/18 01:02:30;;;;;;;5.90;3.13;;;16.10;99.90;;;;;;5076507;28;20036;-66
2023/08/18 01:05:02;;;;;;;6.32;3.78;;;16.10;99.90;;;;;;5076525;28;20040;-66
2023/08/18 01:07:28;;;;;;;6.38;3.42;;;16.00;99.90;;;;;;5075465;28;20089;-66
2023/08/18 01:09:54;;;;;;;7.53;3.65;;;16.00;99.90;;;;;;5094311;28;20427;-66
2023/08/18 01:12:30;;;;;;;5.50;3.20;;;15.90;99.90;;;;;;5076207;28;20496;-66
2023/08/18 01:15:05;;;;;;;6.43;3.22;;;15.90;99.90;;;;;;5075489;28;20458;-66
2023/08/18 01:17:37;;;;;;;9.52;4.07;;;15.90;99.90;;;;;;5059639;28;20058;-66
2023/08/18 01:20:05;;;;;;;5.95;3.35;;;15.90;99.90;;;;;;5076391;28;20058;-66
2023/08/18 01:22:34;;;;;;;5.55;3.30;;;15.90;99.90;;;;;;5075242;28;20040;-66
2023/08/18 01:25:00;;;;;;;6.18;3.88;;;15.90;99.90;;;;;;5094299;28;20040;-66
2023/08/18 01:27:30;;;;;;;6.80;3.22;;;15.90;99.90;;;;;;5075112;28;20040;-67
2023/08/18 01:29:55;;;;;;;6.13;3.70;;;15.90;99.90;;;;;;5076089;28;20127;-66
2023/08/18 01:32:32;;;;;;;5.35;3.42;;;15.90;99.90;;;;;;5093386;28;20070;-66
2023/08/18 01:35:00;;;;;;;6.63;3.97;;;15.90;99.90;;;;;;5093046;28;20051;-66
2023/08/18 01:37:29;;;;;;;6.45;3.65;;;15.80;99.90;;;;;;5075804;28;20790;-66
2023/08/18 01:39:56;;;;;;;6.05;3.20;;;15.80;99.90;;;;;;5075963;28;20052;-66
2023/08/18 01:42:21;;;;;;;5.85;3.78;;;15.80;99.90;;;;;;5075151;28;20044;-66
2023/08/18 01:44:47;;;;;;;7.03;3.42;;;15.80;99.90;;;;;;5093745;28;20036;-67
2023/08/18 01:47:13;;;;;;;7.50;3.72;;;15.70;99.90;;;;;;5093327;28;20051;-66
2023/08/18 01:49:38;;;;;;;7.85;4.30;;;15.70;99.90;;;;;;5074613;28;20137;-66
2023/08/18 01:52:04;;;;;;;7.30;3.70;;;15.70;99.90;;;;;;5059110;28;20040;-66
2023/08/18 01:54:30;;;;;;;6.40;3.70;;;15.70;99.90;;;;;;5075188;28;20036;-66
2023/08/18 01:56:57;;;;;;;5.97;3.38;;;15.60;99.90;;;;;;5092855;28;20040;-66
2023/08/18 01:59:23;;;;;;;6.05;3.50;;;15.60;99.90;;;;;;5058417;28;20098;-66
2023/08/18 02:01:48;;;;;;;7.35;3.97;;;15.60;99.90;;;;;;5093336;28;20028;-66
2023/08/18 02:04:14;;;;;;;6.85;4.25;;;15.60;99.90;;;;;;5092578;28;20044;-66
2023/08/18 02:06:40;;;;;;;8.55;4.50;;;15.50;99.90;;;;;;5093230;28;20043;-66
2023/08/18 02:09:05;;;;;;;6.95;3.95;;;15.50;99.90;;;;;;5074607;28;20043;-66
2023/08/18 02:11:31;;;;;;;7.85;4.38;;;15.50;99.90;;;;;;5057899;28;20078;-66
2023/08/18 02:13:57;;;;;;;6.07;3.50;;;15.50;99.90;;;;;;5075085;28;20089;-66
2023/08/18 02:16:23;;;;;;;5.82;3.85;;;15.50;99.90;;;;;;5093150;28;20404;-66
2023/08/18 02:18:49;;;;;;;5.70;3.63;;;15.50;99.90;;;;;;5092248;28;20032;-66
2023/08/18 02:21:15;;;;;;;6.50;4.18;;;15.50;99.90;;;;;;5074669;28;20047;-66
2023/08/18 02:23:40;;;;;;;8.45;3.70;;;15.50;99.90;;;;;;5073579;28;20028;-66
2023/08/18 02:26:06;;;;;;;6.50;3.97;;;15.50;99.90;;;;;;5092971;28;20043;-66
2023/08/18 02:28:33;;;;;;;7.60;3.92;;;15.40;99.90;;;;;;5058302;28;20046;-66
2023/08/18 02:31:04;;;;;;;5.97;3.45;;;15.40;99.90;;;;;;5074099;28;20040;-66
2023/08/18 02:33:31;;;;;;;5.88;3.55;;;15.40;99.90;;;;;;5074374;28;20044;-66
2023/08/18 02:35:58;;;;;;;7.72;3.90;;;15.40;99.90;;;;;;5093142;28;20047;-66
2023/08/18 02:38:28;;;;;;;7.97;3.85;;;15.40;99.90;;;;;;5091903;28;20138;-68
2023/08/18 02:40:53;;;;;;;8.38;4.38;;;15.30;99.90;;;;;;5054668;28;20409;-67
2023/08/18 02:43:21;;;;;;;7.35;4.20;;;15.30;99.90;;;;;;5037810;28;20044;-67
2023/08/18 02:45:47;;;;;;;6.95;4.07;;;15.30;99.90;;;;;;5070893;28;20174;-67
2023/08/18 02:48:12;;;;;;;10.68;3.92;;;15.30;99.90;;;;;;5054595;28;20112;-67
2023/08/18 02:50:41;;;;;;;6.13;3.63;;;15.30;99.90;;;;;;5037602;28;20056;-67
2023/08/18 02:53:07;;;;;;;6.68;3.72;;;15.20;99.90;;;;;;5053534;28;20049;-67
2023/08/18 02:55:34;;;;;;;8.75;4.03;;;15.20;99.90;;;;;;5071228;28;20047;-67
2023/08/18 02:58:01;;;;;;;6.55;3.78;;;15.20;99.90;;;;;;5054555;28;20045;-67
2023/08/18 03:00:27;;;;;;;7.13;4.10;;;15.20;99.90;;;;;;5037183;28;20381;-67
2023/08/18 03:02:53;;;;;;;7.30;3.47;;;15.20;99.90;;;;;;5072511;28;20033;-67
2023/08/18 03:05:19;;;;;;;7.18;3.60;;;15.20;99.90;;;;;;5070304;28;20040;-67
2023/08/18 03:07:45;;;;;;;6.22;4.00;;;15.10;99.90;;;;;;5073608;28;20118;-67
2023/08/18 03:10:10;;;;;;;6.65;4.05;;;15.10;99.90;;;;;;5073918;28;20123;-67
2023/08/18 03:12:36;;;;;;;7.03;4.00;;;15.20;99.90;;;;;;5091929;28;20089;-67
2023/08/18 03:15:02;;;;;;;9.20;3.90;;;15.20;99.90;;;;;;5073633;28;20408;-67
2023/08/18 03:17:28;;;;;;;6.72;4.22;;;15.20;99.90;;;;;;5057021;28;20044;-67
2023/08/18 03:19:53;;;;;;;8.23;3.67;;;15.20;99.90;;;;;;5074048;28;20066;-66
2023/08/18 03:22:19;;;;;;;6.03;3.90;;;15.20;99.90;;;;;;5092168;28;20392;-67
2023/08/18 03:24:44;;;;;;;8.40;3.85;;;15.20;99.90;;;;;;5073783;28;20040;-67
2023/08/18 03:27:10;;;;;;;6.47;4.05;;;15.20;99.90;;;;;;5091175;28;20035;-67
2023/08/18 03:29:36;;;;;;;6.10;4.10;;;15.20;99.90;;;;;;5092030;28;20051;-67
2023/08/18 03:32:02;;;;;;;7.50;4.45;;;15.20;99.90;;;;;;5092529;28;20070;-67
2023/08/18 03:34:28;;;;;;;8.48;4.15;;;15.30;99.90;;;;;;5072968;28;20079;-66
2023/08/18 03:36:53;;;;;;;8.55;4.07;;;15.30;99.90;;;;;;5057569;28;20039;-67
2023/08/18 03:39:19;;;;;;;6.20;4.03;;;15.30;99.90;;;;;;5091752;28;20044;-67
2023/08/18 03:41:45;;;;;;;7.78;4.28;;;15.30;99.90;;;;;;5073257;28;20048;-67
2023/08/18 03:44:10;;;;;;;8.23;4.20;;;15.40;99.90;;;;;;5073975;28;20040;-67
2023/08/18 03:46:36;;;;;;;8.07;4.85;;;15.30;99.90;;;;;;5091861;28;20042;-67
2023/08/18 03:49:05;;;;;;;6.95;4.55;;;15.40;99.90;;;;;;5091404;28;20040;-67
2023/08/18 03:51:34;;;;;;;8.43;4.47;;;15.40;99.90;;;;;;5057136;28;20109;-67
2023/08/18 03:53:59;;;;;;;7.13;4.38;;;15.40;99.90;;;;;;5092095;28;20036;-67
2023/08/18 03:56:25;;;;;;;7.13;4.70;;;15.50;99.90;;;;;;5091858;28;20042;-67
2023/08/18 03:58:51;;;;;;;8.57;4.60;;;15.50;99.90;;;;;;5095885;28;20036;-66
2023/08/18 04:01:16;;;;;;;7.80;4.88;;;15.50;99.90;;;;;;5077280;28;20472;-66
2023/08/18 04:03:43;;;;;;;11.02;4.93;;;15.50;99.90;;;;;;5060078;28;20036;-66
2023/08/18 04:06:12;;;;;;;8.85;5.15;;;15.60;99.90;;;;;;5095432;28;20051;-66
2023/08/18 04:08:43;;;;;;;7.30;4.47;;;15.50;99.90;;;;;;5077123;28;20032;-67
2023/08/18 04:11:12;;;;;;;7.50;5.00;;;15.60;99.90;;;;;;5076200;28;20044;-67
2023/08/18 04:13:39;;;;;;;10.35;5.68;;;15.60;99.90;;;;;;5077116;28;20555;-66
2023/08/18 04:16:04;;;;;;;9.38;5.60;;;15.70;99.90;;;;;;5077587;28;20042;-66
2023/08/18 04:18:30;;;;;;;9.40;4.90;;;15.70;99.90;;;;;;5094344;28;20043;-67
2023/08/18 04:20:56;;;;;;;10.98;5.78;;;15.70;99.90;;;;;;5077340;28;20139;-67
2023/08/18 04:23:21;;;;;;;11.45;5.47;;;15.80;99.90;;;;;;5076116;28;20445;-67
2023/08/18 04:25:47;;;;;;;9.13;5.72;;;15.80;99.90;;;;;;5077236;28;20082;-67
2023/08/18 04:28:13;;;;;;;13.02;6.32;;;15.80;99.90;;;;;;5076951;28;20039;-67
2023/08/18 04:30:39;;;;;;;8.88;5.70;;;15.80;99.90;;;;;;5076380;28;20043;-67
2023/08/18 04:33:04;;;;;;;9.25;5.28;;;15.90;99.90;;;;;;5077158;28;20515;-66
2023/08/18 04:35:30;;;;;;;13.50;5.57;;;15.90;99.90;;;;;;5094816;28;20032;-67
2023/08/18 04:37:56;;;;;;;8.25;5.07;;;15.90;99.90;;;;;;5076480;28;20089;-67
2023/08/18 04:40:23;;;;;;;8.43;5.20;;;16.00;99.90;;;;;;5076510;28;20048;-67
2023/08/18 04:42:49;;;;;;;8.82;5.10;;;16.00;99.90;;;;;;5094916;28;20040;-67
2023/08/18 04:45:15;;;;;;;8.80;5.40;;;16.00;99.90;;;;;;5094272;28;20051;-67
2023/08/18 04:47:40;;;;;;;12.75;6.00;;;16.00;99.90;;;;;;5094999;28;20032;-67
2023/08/18 04:50:06;;;;;;;12.35;5.32;;;16.00;99.90;;;;;;5072947;28;20560;-66
2023/08/18 04:52:32;;;;;;;9.95;5.68;;;15.90;99.90;;;;;;5072361;28;20084;-67
2023/08/18 04:54:58;;;;;;;9.80;5.38;;;16.00;99.90;;;;;;5073389;28;20082;-67
2023/08/18 04:57:24;;;;;;;8.93;5.00;;;15.90;99.90;;;;;;5073339;28;20062;-67
2023/08/18 04:59:49;;;;;;;9.35;5.57;;;16.00;99.90;;;;;;5072984;28;20497;-67
2023/08/18 05:02:15;;;;;;;11.38;6.25;;;16.00;99.90;;;;;;5073494;28;20041;-67
2023/08/18 05:04:41;;;;;;;9.25;5.60;;;16.00;99.90;;;;;;5073101;28;20043;-67
2023/08/18 05:07:07;;;;;;;7.00;4.93;;;16.10;99.90;;;;;;5072110;28;20444;-66
2023/08/18 05:09:34;;;;;;;9.40;5.82;;;16.10;99.90;;;;;;5071553;28;20060;-67
2023/08/18 05:11:59;;;;;;;11.65;6.65;;;16.00;99.90;;;;;;5074476;28;20048;-67
2023/08/18 05:14:25;;;;;;;9.35;5.22;;;16.10;99.90;;;;;;5072327;28;21105;-66
2023/08/18 05:16:51;;;;;;;8.73;4.97;;;16.10;99.90;;;;;;5073080;28;20039;-67
2023/08/18 05:19:17;;;;;;;7.70;4.93;;;16.10;99.90;;;;;;5072783;28;20517;-67
2023/08/18 05:21:42;;;;;;;12.23;4.95;;;16.10;99.90;;;;;;5071995;28;20037;-66
2023/08/18 05:24:08;;;;;;;7.68;4.43;;;16.10;99.90;;;;;;5072837;28;20044;-67
2023/08/18 05:26:34;;;;;;;7.32;4.60;;;16.10;99.90;;;;;;5073172;28;20382;-67
2023/08/18 05:28:59;;;;;;;7.20;4.85;;;16.20;99.90;;;;;;5073135;28;20149;-67
2023/08/18 05:31:25;;;;;;;7.88;4.35;;;16.20;99.90;;;;;;5072535;28;20576;-67
2023/08/18 05:33:51;;;;;;;7.78;5.10;;;16.20;99.90;;;;;;5072922;28;20753;-67
2023/08/18 05:36:18;;;;;;;10.13;5.40;;;16.20;99.90;;;;;;5072258;28;20033;-67
2023/08/18 05:38:43;;;;;;;11.10;5.50;;;16.30;99.90;;;;;;5073807;28;20037;-67
2023/08/18 05:41:13;;;;;;;10.68;4.70;;;16.30;99.90;;;;;;5070979;28;20051;-67
2023/08/18 05:43:40;;;;;;;7.78;4.40;;;16.30;99.90;;;;;;5073719;28;20123;-67
2023/08/18 05:46:06;;;;;;;9.93;5.40;;;16.40;99.90;;;;;;5055774;28;20071;-66
2023/08/18 05:48:32;;;;;;;8.02;4.57;;;16.40;99.90;;;;;;5054682;28;20580;-67
2023/08/18 05:51:02;;;;;;;8.23;5.22;;;16.40;99.90;;;;;;5087639;28;20056;-66
2023/08/18 05:53:28;;;;;;;8.25;5.03;;;16.40;99.90;;;;;;5091862;28;20051;-66
2023/08/18 05:55:54;;;;;;;9.50;5.22;;;16.40;99.90;;;;;;5071655;28;20084;-66
2023/08/18 05:58:20;;;;;;;7.82;4.75;;;16.40;99.90;;;;;;5093360;28;20044;-67
2023/08/18 06:00:49;;;;;;;7.55;5.13;;;16.50;99.90;;;;;;5092890;28;20110;-67
2023/08/18 06:03:15;;;;;;;9.60;5.93;;;16.50;99.90;;;;;;5073254;28;20048;-67
2023/08/18 06:05:41;;;;;;;7.72;4.97;;;16.50;99.90;;;;;;5079370;28;20044;-67
2023/08/18 06:08:06;;;;;;;11.85;5.70;;;16.50;99.90;;;;;;5084937;28;20444;-67
2023/08/18 06:10:32;;;;;;;8.43;5.20;;;16.50;99.90;;;;;;5056057;28;20093;-67
2023/08/18 06:12:58;;;;;;;8.73;5.53;;;16.60;99.90;;;;;;5075554;28;20035;-67
2023/08/18 06:15:23;;;;;;;8.43;5.57;;;16.60;99.90;;;;;;5090332;28;20170;-67
2023/08/18 06:17:49;;;;;;;7.68;4.93;;;16.60;99.90;;;;;;5071769;28;20109;-67
2023/08/18 06:20:15;;;;;;;12.18;5.45;;;16.70;99.90;;;;;;5089699;28;20044;-67
2023/08/18 06:22:41;;;;;;;7.47;4.45;;;16.70;99.90;;;;;;5072879;28;20040;-67
2023/08/18 06:25:08;;;;;;;10.10;5.57;;;16.70;99.90;;;;;;5071411;28;20519;-67
2023/08/18 06:27:33;;;;;;;8.90;5.38;;;16.80;99.90;;;;;;5089732;28;20117;-67
2023/08/18 06:29:59;;;;;;;9.15;5.97;;;16.70;99.90;;;;;;5071242;28;20762;-67
2023/08/18 06:32:25;;;;;;;11.27;5.78;;;16.80;99.90;;;;;;5070601;28;20338;-67
2023/08/18 06:34:51;;;;;;;8.30;5.22;;;16.90;99.90;;;;;;5060636;28;20476;-67
2023/08/18 06:37:18;;;;;;;8.02;5.18;;;16.90;99.90;;;;;;5053432;28;20082;-67
2023/08/18 06:39:44;;;;;;;8.07;5.50;;;16.90;99.90;;;;;;5086548;28;20488;-66
2023/08/18 06:42:11;;;;;;;9.20;5.78;;;16.90;99.90;;;;;;5070686;28;20035;-67
2023/08/18 06:44:37;;;;;;;10.50;5.80;;;16.90;99.90;;;;;;5087438;28;20032;-67
2023/08/18 06:47:03;;;;;;;9.02;5.35;;;17.00;99.90;;;;;;5049203;28;20044;-67
2023/08/18 06:49:29;;;;;;;10.00;6.07;;;17.00;99.90;;;;;;5070144;28;20047;-66
2023/08/18 06:51:54;;;;;;;13.60;5.55;;;17.00;99.90;;;;;;5063469;28;20408;-67
2023/08/18 06:54:20;;;;;;;11.68;6.10;;;17.00;99.90;;;;;;5053454;28;20047;-67
2023/08/18 06:56:46;;;;;;;9.48;5.80;;;17.00;99.90;;;;;;5070831;28;20401;-67
2023/08/18 06:59:13;;;;;;;9.75;5.95;;;17.10;99.90;;;;;;5073641;28;20575;-67
2023/08/18 07:01:39;;;;;;;11.25;6.50;;;17.00;99.90;;;;;;5088512;28;20058;-67
2023/08/18 07:04:05;;;;;;;10.98;5.90;;;17.10;99.90;;;;;;5054346;28;20111;-67
2023/08/18 07:06:32;;;;;;;10.38;6.30;;;17.00;99.90;;;;;;5088421;28;20453;-68
2023/08/18 07:08:58;;;;;;;10.52;6.10;;;17.10;99.90;;;;;;5070929;28;20073;-68
2023/08/18 07:11:24;;;;;;;10.15;6.03;;;17.10;99.90;;;;;;5071156;28;20072;-68
2023/08/18 07:13:49;;;;;;;14.20;5.68;;;17.20;99.90;;;;;;5086651;28;20044;-68
2023/08/18 07:16:15;;;;;;;12.05;6.28;;;17.20;99.90;;;;;;5070665;28;20046;-70
2023/08/18 07:18:41;;;;;;;11.23;6.72;;;17.30;99.90;;;;;;5070848;28;20076;-67
2023/08/18 07:21:06;;;;;;;10.63;6.82;;;17.30;99.90;;;;;;5087716;28;20177;-68
2023/08/18 07:23:32;;;;;;;9.32;6.38;;;17.40;99.90;;;;;;5051661;28;20037;-67
2023/08/18 07:25:58;;;;;;;10.10;6.35;;;17.40;99.90;;;;;;5069925;28;20149;-65
2023/08/18 07:28:24;;;;;;;9.77;6.35;;;17.50;99.90;;;;;;5050704;28;20123;-65
2023/08/18 07:30:50;;;;;;;9.43;6.63;;;17.50;99.90;;;;;;5069421;28;20051;-66
2023/08/18 07:33:16;;;;;;;10.80;7.10;;;17.50;99.90;;;;;;5055051;28;20481;-65
2023/08/18 07:35:42;;;;;;;10.10;6.43;;;17.50;99.90;;;;;;5075288;28;20393;-65
2023/08/18 07:38:07;;;;;;;9.63;6.20;;;17.60;99.90;;;;;;5093256;28;20397;-66
2023/08/18 07:40:33;;;;;;;10.43;6.35;;;17.60;99.90;;;;;;5074361;28;20048;-66
2023/08/18 07:42:59;;;;;;;11.65;6.18;;;17.60;99.90;;;;;;5093685;28;20119;-66
2023/08/18 07:45:26;;;;;;;11.25;6.68;;;17.60;99.90;;;;;;5075499;28;20043;-66
2023/08/18 07:47:52;;;;;;;9.40;6.65;;;17.60;99.90;;;;;;5094260;28;20040;-67
2023/08/18 07:50:18;;;;;;;10.23;6.20;;;17.60;99.90;;;;;;5095280;28;20497;-67
2023/08/18 07:52:44;;;;;;;10.48;6.70;;;17.60;99.90;;;;;;5095415;28;20105;-68
2023/08/18 07:55:10;;;;;;;9.68;5.93;;;17.70;99.90;;;;;;5095134;28;20093;-69
2023/08/18 07:57:39;;;;;;;14.35;6.88;;;17.70;99.90;;;;;;5077679;28;20381;-66
2023/08/18 08:00:16;;;;;;;11.77;7.45;;;17.70;99.90;;;;;;5077781;28;20055;-66
2023/08/18 08:02:46;;;;;;;11.30;6.68;;;17.70;99.90;;;;;;5077006;28;20054;-67
2023/08/18 08:05:17;;;;;;;11.40;6.95;;;17.70;99.90;;;;;;5095498;28;20580;-66
2023/08/18 08:07:43;;;;;;;11.77;7.47;;;17.70;99.90;;;;;;5095589;28;20044;-66
2023/08/18 08:10:09;;;;;;;10.98;7.72;;;17.70;99.90;;;;;;5076528;28;20047;-66
2023/08/18 08:12:38;;;;;;;12.57;7.97;;;17.70;99.90;;;;;;5095362;28;20046;-66
2023/08/18 08:15:05;;;;;;;15.30;7.78;;;17.70;99.90;;;;;;5095573;28;20450;-66
2023/08/18 08:17:32;;;;;;;10.77;7.15;;;17.70;99.90;;;;;;5076776;28;20119;-66
2023/08/18 08:20:00;;;;;;;9.90;7.60;;;17.70;99.90;;;;;;5077745;28;20044;-66
2023/08/18 08:22:26;;;;;;;12.05;7.20;;;17.80;99.90;;;;;;5094512;28;20036;-67
2023/08/18 08:24:54;;;;;;;10.20;7.47;;;17.80;99.90;;;;;;5077329;28;20040;-66
2023/08/18 08:27:21;;;;;;;14.38;6.70;;;17.80;99.90;;;;;;5076986;28;20074;-67
2023/08/18 08:29:46;;;;;;;10.93;7.03;;;17.90;99.90;;;;;;5094331;28;20488;-66
2023/08/18 08:32:12;;;;;;;15.68;8.27;;;17.90;99.90;;;;;;5076884;28;20048;-66
2023/08/18 08:34:39;;;;;;;12.13;7.40;;;17.90;99.90;;;;;;5076886;28;20127;-66
2023/08/18 08:37:06;;;;;;;10.70;7.13;;;17.90;99.90;;;;;;5094247;28;20397;-66
2023/08/18 08:39:31;;;;;;;10.35;7.30;;;17.90;99.90;;;;;;5076695;28;20055;-66
2023/08/18 08:41:57;;;;;;;10.73;7.20;;;17.90;99.90;;;;;;5077073;28;20047;-66
2023/08/18 08:44:23;;;;;;;10.18;7.68;;;18.00;99.90;;;;;;5075910;28;20129;-66
2023/08/18 08:46:49;;;;;;;9.23;7.45;;;18.00;99.90;;;;;;5076507;28;20116;-66
2023/08/18 08:49:15;;;;;;;12.43;8.55;;;18.10;99.90;;;;;;5094741;28;20066;-66
2023/08/18 08:51:46;;;;;;;12.13;8.88;;;18.20;99.90;;;;;;5075801;28;20052;-66
2023/08/18 08:54:13;;;;;;;10.50;7.40;;;18.20;99.90;;;;;;5094618;28;20044;-66
2023/08/18 08:56:42;;;;;;;12.88;8.00;;;18.20;99.90;;;;;;5076837;28;20431;-66
2023/08/18 08:59:08;;;;;;;11.23;7.88;;;18.30;99.90;;;;;;5058803;28;20078;-66
2023/08/18 09:01:35;;;;;;;11.30;8.15;;;18.40;99.90;;;;;;5076417;28;20067;-66
2023/08/18 09:04:03;;;;;;;11.60;9.00;;;18.50;99.90;;;;;;5094814;28;20050;-66
2023/08/18 09:06:29;;;;;;;13.45;7.93;;;18.50;99.90;;;;;;5059084;28;20397;-66
2023/08/18 09:08:56;;;;;;;14.38;8.88;;;18.60;99.90;;;;;;5076530;28;20051;-66
2023/08/18 09:11:41;;;;;;;57.60;37.65;;;18.70;99.90;;;;;;5076209;28;20040;-66
2023/08/18 09:14:11;;;;;;;14.35;9.65;;;18.70;99.90;;;;;;5076319;28;20089;-66
2023/08/18 09:16:37;;;;;;;13.30;8.43;;;18.70;99.90;;;;;;5094308;28;20385;-67
2023/08/18 09:19:03;;;;;;;15.32;9.00;;;18.70;99.90;;;;;;5075686;28;20049;-67
2023/08/18 09:21:31;;;;;;;14.45;8.68;;;18.80;99.90;;;;;;5093935;28;20119;-66
2023/08/18 09:23:57;;;;;;;11.02;8.57;;;18.80;99.90;;;;;;5076392;28;20050;-66
2023/08/18 09:26:24;;;;;;;10.50;8.57;;;18.90;99.90;;;;;;5058273;28;20032;-66
2023/08/18 09:28:50;;;;;;;11.13;7.90;;;18.90;99.90;;;;;;5093981;28;20062;-66
2023/08/18 09:31:16;;;;;;;11.77;8.82;;;18.90;99.90;;;;;;5075782;28;20047;-66
2023/08/18 09:33:42;;;;;;;12.45;8.45;;;18.90;99.90;;;;;;5074958;28;20404;-66
2023/08/18 09:36:11;;;;;;;11.70;9.27;;;19.00;99.90;;;;;;5075747;28;20040;-66
2023/08/18 09:38:41;;;;;;;13.35;9.43;;;19.00;99.90;;;;;;5075676;28;20565;-66
2023/08/18 09:41:11;;;;;;;13.10;9.48;;;18.90;99.90;;;;;;5093030;28;20036;-66
2023/08/18 09:43:42;;;;;;;15.50;8.65;;;18.90;99.90;;;;;;5093814;28;20040;-66
2023/08/18 09:46:13;;;;;;;12.80;9.30;;;19.00;99.90;;;;;;5075377;28;20039;-66
2023/08/18 09:48:40;;;;;;;14.25;9.38;;;19.00;99.90;;;;;;5074841;28;20040;-66
2023/08/18 09:51:09;;;;;;;12.93;8.48;;;19.10;99.90;;;;;;5093393;28;20614;-66
2023/08/18 09:53:37;;;;;;;12.48;8.52;;;19.20;99.90;;;;;;5075283;28;20082;-66
2023/08/18 09:56:07;;;;;;;14.82;8.80;;;19.30;99.90;;;;;;5074623;28;20549;-66
2023/08/18 09:58:47;;;;;;;14.82;10.40;;;19.30;99.90;;;;;;5075376;28;20043;-66
2023/08/18 10:01:15;;;;;;;14.65;8.70;;;19.40;99.90;;;;;;5057879;28;20044;-66
2023/08/18 10:03:42;;;;;;;15.23;9.68;;;19.50;99.90;;;;;;5075260;28;20590;-66
2023/08/18 10:06:09;;;;;;;16.95;9.25;;;19.60;99.90;;;;;;5093349;28;20078;-66
2023/08/18 10:08:35;;;;;;;16.80;10.02;;;19.70;99.90;;;;;;5092543;28;20130;-67
2023/08/18 10:11:02;;;;;;;14.00;8.52;;;19.70;99.90;;;;;;5093447;28;20122;-66
2023/08/18 10:13:31;;;;;;;14.52;9.15;;;19.80;99.90;;;;;;5074901;28;20126;-66
2023/08/18 10:15:57;;;;;;;14.32;8.80;;;19.80;99.90;;;;;;5092748;28;20071;-66
2023/08/18 10:18:23;;;;;;;14.52;8.90;;;19.80;99.90;;;;;;5058143;28;20044;-66
2023/08/18 10:20:53;;;;;;;15.77;9.73;;;19.90;99.90;;;;;;5092809;28;20123;-66
2023/08/18 10:23:22;;;;;;;12.23;8.45;;;19.90;99.90;;;;;;5074058;28;20055;-66
2023/08/18 10:25:52;;;;;;;17.90;9.10;;;20.00;99.90;;;;;;5092859;28;20201;-67
2023/08/18 10:28:19;;;;;;;13.77;9.30;;;20.10;99.90;;;;;;5093101;28;20105;-66
2023/08/18 10:30:56;;;;;;;12.90;8.73;;;20.20;99.90;;;;;;5073863;28;20043;-66
2023/08/18 10:33:43;;;;;;;15.52;8.10;;;20.20;99.90;;;;;;5074686;28;20496;-66
2023/08/18 10:36:12;;;;;;;12.35;7.40;;;20.30;99.90;;;;;;5057233;28;20040;-66
2023/08/18 10:38:41;;;;;;;12.90;7.70;;;20.30;99.90;;;;;;5092939;28;20118;-66
2023/08/18 10:41:07;;;;;;;16.58;8.73;;;20.40;99.90;;;;;;5074281;28;20544;-66
2023/08/18 10:43:47;;;;;;;12.10;7.57;;;20.40;99.90;;;;;;5073855;28;20122;-66
2023/08/18 10:46:13;;;;;;;17.77;8.50;;;20.40;99.90;;;;;;5092541;28;20542;-66
2023/08/18 10:48:39;;;;;;;10.40;7.90;;;20.40;99.90;;;;;;5092766;28;20040;-67
2023/08/18 10:51:05;;;;;;;12.88;7.88;;;20.40;99.90;;;;;;5073620;28;20135;-66
2023/08/18 10:53:37;;;;;;;11.30;7.75;;;20.50;99.90;;;;;;5057792;28;20130;-66
2023/08/18 10:56:04;;;;;;;11.93;8.30;;;20.60;99.90;;;;;;5092801;28;20044;-67
2023/08/18 10:58:29;;;;;;;14.00;9.18;;;20.70;99.90;;;;;;5091326;28;20431;-66
2023/08/18 11:00:55;;;;;;;10.77;8.95;;;20.70;99.90;;;;;;5074474;28;20044;-66
2023/08/18 11:03:21;;;;;;;13.63;9.07;;;20.70;99.90;;;;;;5074373;28;20040;-66
2023/08/18 11:05:47;;;;;;;13.52;9.48;;;20.80;99.90;;;;;;5055791;28;20040;-67
2023/08/18 11:08:13;;;;;;;13.23;7.38;;;20.70;99.90;;;;;;5074402;28;20400;-66
2023/08/18 11:10:40;;;;;;;10.18;7.32;;;20.70;99.90;;;;;;5074143;28;20036;-66
2023/08/18 11:13:21;;;;;;;11.45;7.60;;;20.70;99.90;;;;;;5073630;28;20160;-67
2023/08/18 11:15:52;;;;;;;10.10;7.07;;;20.70;99.90;;;;;;5074056;28;20127;-67
2023/08/18 11:18:19;;;;;;;11.55;7.07;;;20.70;99.90;;;;;;5091608;28;20070;-67
2023/08/18 11:20:45;;;;;;;11.07;8.20;;;20.70;99.90;;;;;;5074127;28;20040;-66
2023/08/18 11:23:11;;;;;;;9.75;7.40;;;20.80;99.90;;;;;;5073895;28;20500;-66
2023/08/18 11:25:36;;;;;;;11.63;7.75;;;20.80;99.90;;;;;;5073109;28;20032;-67
2023/08/18 11:28:02;;;;;;;11.52;7.35;;;20.90;99.90;;;;;;5074289;28;20047;-67
2023/08/18 11:30:28;;;;;;;10.07;7.20;;;21.00;99.90;;;;;;5073681;28;20044;-67
2023/08/18 11:32:54;;;;;;;9.35;6.97;;;21.00;99.90;;;;;;5073252;28;20139;-67
2023/08/18 11:35:20;;;;;;;7.60;6.40;;;21.00;99.90;;;;;;5092156;28;20044;-67
2023/08/18 11:37:48;;;;;;;10.55;6.32;;;21.10;99.90;;;;;;5073897;28;20548;-67
2023/08/18 11:40:16;;;;;;;10.95;8.02;;;21.30;99.90;;;;;;5056283;28;20081;-66
2023/08/18 11:42:47;;;;;;;10.15;6.53;;;21.30;99.90;;;;;;5073944;28;20439;-66
2023/08/18 11:45:17;;;;;;;9.02;5.68;;;21.40;99.90;;;;;;5073980;28;20181;-67
2023/08/18 11:47:44;;;;;;;9.70;6.90;;;21.50;99.90;;;;;;5073468;28;20393;-67
2023/08/18 11:50:13;;;;;;;9.65;6.82;;;21.50;99.90;;;;;;5091702;28;20447;-67
2023/08/18 11:52:43;;;;;;;9.45;6.85;;;21.60;99.90;;;;;;5073663;28;20128;-67
2023/08/18 11:55:09;;;;;;;9.27;7.20;;;21.60;99.90;;;;;;5072919;28;20052;-67
2023/08/18 11:57:40;;;;;;;9.88;7.38;;;21.60;99.90;;;;;;5073593;28;20093;-67
2023/08/18 12:00:17;;;;;;;10.95;7.22;;;21.60;99.90;;;;;;5091842;28;20048;-67
2023/08/18 12:02:46;;;;;;;10.93;6.97;;;21.70;99.90;;;;;;5091099;28;20397;-67
2023/08/18 12:05:22;;;;;;;9.98;6.63;;;21.70;99.90;;;;;;5073697;28;20044;-67
2023/08/18 12:07:51;;;;;;;9.10;6.10;;;21.70;99.90;;;;;;5072864;28;20040;-67
2023/08/18 12:10:16;;;;;;;8.25;6.72;;;21.70;99.90;;;;;;5091608;28;20044;-67
2023/08/18 12:12:42;;;;;;;8.73;7.05;;;21.80;99.90;;;;;;5073595;28;20089;-67
2023/08/18 12:15:08;;;;;;;9.20;6.72;;;21.80;99.90;;;;;;5090706;28;20085;-67
2023/08/18 12:17:34;;;;;;;9.75;6.55;;;21.80;99.90;;;;;;5092692;28;20116;-66
2023/08/18 12:20:00;;;;;;;11.32;6.55;;;21.80;99.90;;;;;;5095657;28;20075;-67
2023/08/18 12:22:25;;;;;;;9.85;7.15;;;21.80;99.90;;;;;;5094498;28;20036;-67
2023/08/18 12:24:51;;;;;;;8.43;7.38;;;21.90;99.90;;;;;;5095490;28;20546;-67
2023/08/18 12:27:16;;;;;;;9.05;7.63;;;22.00;99.90;;;;;;5095296;28;20420;-67
2023/08/18 12:29:42;;;;;;;9.63;7.25;;;22.10;99.90;;;;;;5059539;28;20044;-67
2023/08/18 12:32:08;;;;;;;9.60;7.18;;;22.30;99.90;;;;;;5077095;28;20036;-67
2023/08/18 12:34:33;;;;;;;10.32;7.97;;;22.30;99.90;;;;;;5060249;28;20488;-66
2023/08/18 12:37:00;;;;;;;12.60;7.60;;;22.30;99.90;;;;;;5094542;28;20124;-67
2023/08/18 12:39:26;;;;;;;10.73;8.35;;;22.30;99.90;;;;;;5076850;28;20040;-67
2023/08/18 12:41:53;;;;;;;10.43;7.18;;;22.30;99.90;;;;;;5094988;28;20163;-66